Time;durP1;ratioP1;P1;durP2;ratioP2;P2;SDS_P1;SDS_P2;PMS_P1;PMS_P2;Temp;Humidity;BMP_temperature;BMP_pressure;BME280_temperature;BME280_humidity;BME280_pressure;Samples;Min_cycle;Max_cycle;Signal;HPM_P1;HPM_P2
2024/01/17 00:01:02;;;;;;;46.30;12.40;;;26.90;37.40;;;;;;5052290;28;20196;-71
2024/01/17 00:03:29;;;;;;;58.27;23.63;;;26.90;38.10;;;;;;5060178;28;20282;-71
2024/01/17 00:05:55;;;;;;;54.73;11.40;;;26.90;37.40;;;;;;5065649;28;20207;-71
2024/01/17 00:08:22;;;;;;;41.97;11.37;;;26.90;37.40;;;;;;5048286;28;20283;-72
2024/01/17 00:10:49;;;;;;;44.80;10.63;;;27.00;37.50;;;;;;5048164;28;20204;-72
2024/01/17 00:13:16;;;;;;;88.87;13.60;;;27.00;37.40;;;;;;5050216;28;20216;-73
2024/01/17 00:15:45;;;;;;;48.77;11.53;;;27.00;37.40;;;;;;5050213;28;20207;-74
2024/01/17 00:18:12;;;;;;;45.00;11.30;;;27.00;37.40;;;;;;5053735;28;20199;-71
2024/01/17 00:20:38;;;;;;;59.50;12.60;;;27.00;37.40;;;;;;5066585;28;20715;-72
2024/01/17 00:23:05;;;;;;;45.80;10.43;;;27.00;37.40;;;;;;5048708;28;20303;-71
2024/01/17 00:25:32;;;;;;;41.70;10.33;;;27.00;37.40;;;;;;5055709;28;20199;-71
2024/01/17 00:27:59;;;;;;;41.93;10.87;;;27.00;38.00;;;;;;5067840;28;20204;-72
2024/01/17 00:30:26;;;;;;;44.80;10.93;;;27.00;37.30;;;;;;5065323;28;20211;-70
2024/01/17 00:32:54;;;;;;;69.03;12.43;;;27.00;37.30;;;;;;5066060;28;20223;-71
2024/01/17 00:35:21;;;;;;;30.73;9.83;;;27.00;37.90;;;;;;5060015;28;20797;-71
2024/01/17 00:37:48;;;;;;;51.27;11.70;;;27.00;37.20;;;;;;5048143;28;20275;-70
2024/01/17 00:40:15;;;;;;;52.37;11.07;;;27.00;37.20;;;;;;5048174;28;20214;-70
2024/01/17 00:42:42;;;;;;;43.43;10.50;;;27.00;37.20;;;;;;5047544;28;20204;-70
2024/01/17 00:45:10;;;;;;;42.77;11.10;;;27.00;37.20;;;;;;5053168;28;20199;-70
2024/01/17 00:47:37;;;;;;;36.07;10.00;;;27.00;37.20;;;;;;5066822;28;20643;-70
2024/01/17 00:50:06;;;;;;;43.23;10.30;;;27.00;37.20;;;;;;5067536;28;20196;-70
2024/01/17 00:52:33;;;;;;;39.40;10.77;;;27.00;37.10;;;;;;5067501;28;20195;-75
2024/01/17 00:55:00;;;;;;;47.13;10.97;;;27.00;37.80;;;;;;5063435;28;20919;-72
2024/01/17 00:57:27;;;;;;;47.67;11.93;;;27.00;37.20;;;;;;5066362;28;20765;-75
2024/01/17 00:59:54;;;;;;;47.37;11.30;;;27.00;37.10;;;;;;5052741;28;20214;-74
2024/01/17 01:02:21;;;;;;;38.27;10.43;;;27.00;37.00;;;;;;5047275;28;20203;-74
2024/01/17 01:04:48;;;;;;;53.17;12.00;;;27.00;37.10;;;;;;5049529;28;20352;-72
2024/01/17 01:07:16;;;;;;;41.27;12.43;;;27.00;37.10;;;;;;5048432;28;20206;-75
2024/01/17 01:09:43;;;;;;;50.30;11.40;;;27.00;37.10;;;;;;5047370;28;20204;-71
2024/01/17 01:12:10;;;;;;;36.73;10.10;;;27.00;37.10;;;;;;5047739;28;20208;-73
2024/01/17 01:14:37;;;;;;;40.50;10.47;;;26.90;37.10;;;;;;5047069;28;20343;-74
2024/01/17 01:17:04;;;;;;;44.23;11.93;;;27.00;37.20;;;;;;5054450;28;20207;-75
2024/01/17 01:19:31;;;;;;;48.30;11.87;;;27.00;37.20;;;;;;5066829;28;20200;-73
2024/01/17 01:21:58;;;;;;;59.57;12.57;;;27.00;37.10;;;;;;5065609;28;20199;-74
2024/01/17 01:24:27;;;;;;;39.77;11.37;;;27.00;37.00;;;;;;5046824;28;20299;-74
2024/01/17 01:26:54;;;;;;;54.80;12.03;;;27.00;37.00;;;;;;5059102;28;20746;-75
2024/01/17 01:29:21;;;;;;;40.40;11.63;;;26.90;37.00;;;;;;5067349;28;20278;-74
2024/01/17 01:31:48;;;;;;;65.13;12.73;;;27.00;37.00;;;;;;5066697;28;20205;-73
2024/01/17 01:34:14;;;;;;;48.97;11.60;;;27.00;37.10;;;;;;5067075;28;20324;-75
2024/01/17 01:36:41;;;;;;;45.63;11.50;;;27.00;37.00;;;;;;5066177;28;20256;-75
2024/01/17 01:39:08;;;;;;;40.60;11.20;;;27.00;37.10;;;;;;5066641;28;20202;-73
2024/01/17 01:41:37;;;;;;;45.80;12.20;;;27.00;37.00;;;;;;5066939;28;20207;-75
2024/01/17 01:44:05;;;;;;;56.20;12.07;;;27.00;37.00;;;;;;5066102;28;20698;-76
2024/01/17 01:46:33;;;;;;;44.20;11.63;;;26.90;37.00;;;;;;5065822;28;20202;-74
2024/01/17 01:49:00;;;;;;;42.83;11.23;;;27.00;37.00;;;;;;5067220;28;20206;-75
2024/01/17 01:51:29;;;;;;;49.40;13.37;;;27.00;37.00;;;;;;5066254;28;20318;-76
2024/01/17 01:53:59;;;;;;;42.43;15.13;;;27.00;37.00;;;;;;5063681;28;20231;-73
2024/01/17 01:56:30;;;;;;;49.27;12.40;;;27.00;36.90;;;;;;5047012;28;20227;-76
2024/01/17 01:59:00;;;;;;;58.90;13.07;;;27.00;36.90;;;;;;5046249;28;20931;-75
2024/01/17 02:01:28;;;;;;;54.20;12.50;;;26.90;36.90;;;;;;5056335;28;20303;-75
2024/01/17 02:03:57;;;;;;;44.57;12.83;;;27.00;37.00;;;;;;5066133;28;20190;-76
2024/01/17 02:06:26;;;;;;;58.17;13.37;;;27.00;37.10;;;;;;5065362;28;20213;-77
2024/01/17 02:08:55;;;;;;;83.17;14.00;;;27.00;37.10;;;;;;5063020;28;20195;-73
2024/01/17 02:11:22;;;;;;;46.57;12.87;;;27.00;37.00;;;;;;5054031;28;20897;-73
2024/01/17 02:13:50;;;;;;;41.60;10.97;;;27.00;37.60;;;;;;5065716;28;20782;-75
2024/01/17 02:16:20;;;;;;;45.20;11.03;;;27.00;37.20;;;;;;5066112;28;20195;-75
2024/01/17 02:18:48;;;;;;;41.83;10.43;;;26.90;37.00;;;;;;5049427;28;20212;-71
2024/01/17 02:21:15;;;;;;;51.83;11.80;;;27.00;37.00;;;;;;5047167;28;20295;-75
2024/01/17 02:23:42;;;;;;;47.73;10.77;;;27.00;37.00;;;;;;5056910;28;20302;-75
2024/01/17 02:26:10;;;;;;;47.97;10.50;;;27.00;37.00;;;;;;5048227;28;20283;-75
2024/01/17 02:28:37;;;;;;;39.57;9.90;;;27.00;37.00;;;;;;5059139;28;20191;-75
2024/01/17 02:31:06;;;;;;;48.00;12.03;;;27.00;37.00;;;;;;5058348;28;20201;-72
2024/01/17 02:33:34;;;;;;;47.10;11.37;;;27.00;37.00;;;;;;5046314;28;20314;-74
2024/01/17 02:36:01;;;;;;;39.23;10.57;;;27.00;37.00;;;;;;5048568;28;20291;-74
2024/01/17 02:38:28;;;;;;;47.83;10.07;;;27.00;37.00;;;;;;5054647;28;20299;-71
2024/01/17 02:40:55;;;;;;;42.50;10.30;;;27.00;37.00;;;;;;5054968;28;20204;-71
2024/01/17 02:43:23;;;;;;;48.00;11.70;;;27.00;37.00;;;;;;5062699;28;20284;-73
2024/01/17 02:45:50;;;;;;;40.53;10.17;;;27.00;36.90;;;;;;5063607;28;20752;-72
2024/01/17 02:48:17;;;;;;;47.70;11.07;;;27.00;37.00;;;;;;5047384;28;20200;-71
2024/01/17 02:50:44;;;;;;;55.77;11.87;;;27.00;36.90;;;;;;5064055;28;20287;-71
2024/01/17 02:53:11;;;;;;;43.87;10.60;;;27.00;36.90;;;;;;5068520;28;20211;-71
2024/01/17 02:55:38;;;;;;;57.57;12.83;;;27.00;36.90;;;;;;5067074;28;20310;-72
2024/01/17 02:58:05;;;;;;;42.93;10.27;;;27.00;36.90;;;;;;5068317;28;20195;-71
2024/01/17 03:00:34;;;;;;;44.53;11.00;;;27.00;37.00;;;;;;5067530;28;20214;-72
2024/01/17 03:03:01;;;;;;;60.03;10.77;;;27.00;36.90;;;;;;5050160;28;20200;-71
2024/01/17 03:05:28;;;;;;;47.30;10.87;;;27.10;37.00;;;;;;5049361;28;20204;-72
2024/01/17 03:07:54;;;;;;;46.53;11.23;;;27.10;37.00;;;;;;5049306;28;20287;-71
2024/01/17 03:10:22;;;;;;;47.50;10.57;;;27.00;36.80;;;;;;5049905;28;20208;-71
2024/01/17 03:12:48;;;;;;;44.27;10.37;;;27.00;36.80;;;;;;5064612;28;20223;-70
2024/01/17 03:15:16;;;;;;;37.73;10.23;;;27.10;36.80;;;;;;5069327;28;20223;-71
2024/01/17 03:17:44;;;;;;;36.80;10.20;;;27.00;36.80;;;;;;5068393;28;20206;-72
2024/01/17 03:20:11;;;;;;;45.43;11.33;;;27.10;36.80;;;;;;5069104;28;20206;-72
2024/01/17 03:22:40;;;;;;;45.80;9.90;;;27.10;36.80;;;;;;5069193;28;20204;-73
2024/01/17 03:25:08;;;;;;;36.90;10.00;;;27.10;36.90;;;;;;5068524;28;20199;-71
2024/01/17 03:27:36;;;;;;;49.07;10.17;;;27.10;36.80;;;;;;5068481;28;20187;-72
2024/01/17 03:30:03;;;;;;;47.37;10.50;;;27.10;36.80;;;;;;5067134;28;20571;-71
2024/01/17 03:32:30;;;;;;;49.80;11.23;;;27.10;36.70;;;;;;5068989;28;20239;-71
2024/01/17 03:35:00;;;;;;;36.60;9.47;;;27.10;36.70;;;;;;5068977;28;20293;-72
2024/01/17 03:37:26;;;;;;;52.67;10.83;;;27.10;36.70;;;;;;5068319;28;21097;-71
2024/01/17 03:39:53;;;;;;;40.80;10.03;;;27.10;36.70;;;;;;5068959;28;20285;-72
2024/01/17 03:42:20;;;;;;;39.40;12.20;;;27.10;36.70;;;;;;5068826;28;20200;-71
2024/01/17 03:44:47;;;;;;;43.77;10.40;;;27.10;37.40;;;;;;5062695;28;20216;-71
2024/01/17 03:47:14;;;;;;;51.97;10.73;;;27.10;36.80;;;;;;5048270;28;20278;-71
2024/01/17 03:49:41;;;;;;;53.13;10.93;;;27.10;36.80;;;;;;5052460;28;20196;-72
2024/01/17 03:52:09;;;;;;;54.00;10.33;;;27.10;36.70;;;;;;5067302;28;20302;-71
2024/01/17 03:54:37;;;;;;;53.33;11.17;;;27.10;36.70;;;;;;5067331;28;20603;-72
2024/01/17 03:57:05;;;;;;;60.50;11.03;;;27.10;36.70;;;;;;5067078;28;20215;-72
2024/01/17 03:59:32;;;;;;;48.10;9.83;;;27.10;36.70;;;;;;5066443;28;20231;-72
2024/01/17 04:01:59;;;;;;;43.73;10.20;;;27.10;36.70;;;;;;5066453;28;20199;-72
2024/01/17 04:04:26;;;;;;;38.60;9.73;;;27.10;36.70;;;;;;5066439;28;20302;-72
2024/01/17 04:06:55;;;;;;;56.93;10.93;;;27.10;36.70;;;;;;5067588;28;20274;-73
2024/01/17 04:09:23;;;;;;;58.27;11.30;;;27.10;36.70;;;;;;5067807;28;20233;-72
2024/01/17 04:11:50;;;;;;;54.57;10.33;;;27.10;36.60;;;;;;5067250;28;20198;-71
2024/01/17 04:14:17;;;;;;;51.87;10.93;;;27.10;36.70;;;;;;5066271;28;20223;-72
2024/01/17 04:16:44;;;;;;;52.93;11.00;;;27.10;36.60;;;;;;5060100;28;20207;-72
2024/01/17 04:19:11;;;;;;;53.07;10.57;;;27.10;37.30;;;;;;5047224;28;20202;-71
2024/01/17 04:21:37;;;;;;;61.00;10.63;;;27.10;36.60;;;;;;5047358;28;20204;-72
2024/01/17 04:24:05;;;;;;;82.50;12.23;;;27.10;36.60;;;;;;5060954;28;20301;-72
2024/01/17 04:26:33;;;;;;;53.00;11.03;;;27.10;36.60;;;;;;5066975;28;20669;-71
2024/01/17 04:29:00;;;;;;;48.83;10.93;;;27.10;36.60;;;;;;5066854;28;20203;-71
2024/01/17 04:31:28;;;;;;;71.70;10.93;;;27.10;36.60;;;;;;5066664;28;20228;-71
2024/01/17 04:33:56;;;;;;;60.20;11.43;;;27.10;36.60;;;;;;5066570;28;20591;-73
2024/01/17 04:36:25;;;;;;;49.83;9.83;;;27.10;36.60;;;;;;5066896;28;20275;-71
2024/01/17 04:38:52;;;;;;;51.47;10.43;;;27.10;36.60;;;;;;5065501;28;20253;-72
2024/01/17 04:41:19;;;;;;;48.80;10.87;;;27.10;36.60;;;;;;5066011;28;20195;-71
2024/01/17 04:43:47;;;;;;;62.27;11.27;;;27.10;36.50;;;;;;5059365;28;20196;-71
2024/01/17 04:46:15;;;;;;;44.17;10.10;;;27.10;36.40;;;;;;5062288;28;20769;-72
2024/01/17 04:48:43;;;;;;;50.10;10.37;;;27.10;36.40;;;;;;5046641;28;20315;-73
2024/01/17 04:51:10;;;;;;;52.47;10.57;;;27.10;37.10;;;;;;5046305;28;20848;-72
2024/01/17 04:53:41;;;;;;;56.23;11.67;;;27.10;36.40;;;;;;5046174;28;20231;-73
2024/01/17 04:56:09;;;;;;;52.83;10.93;;;27.10;36.40;;;;;;5046056;28;20290;-72
2024/01/17 04:58:36;;;;;;;52.73;10.50;;;27.20;36.50;;;;;;5046581;28;20250;-72
2024/01/17 05:01:05;;;;;;;56.70;10.17;;;27.10;36.50;;;;;;5046322;28;20635;-72
2024/01/17 05:03:32;;;;;;;59.13;11.30;;;27.20;36.50;;;;;;5061937;28;20203;-72
2024/01/17 05:05:59;;;;;;;60.37;11.40;;;27.20;36.50;;;;;;5066004;28;20211;-73
2024/01/17 05:08:26;;;;;;;63.53;10.70;;;27.20;36.50;;;;;;5065672;28;20203;-72
2024/01/17 05:10:53;;;;;;;52.30;10.67;;;27.20;36.50;;;;;;5065786;28;20295;-73
2024/01/17 05:13:20;;;;;;;42.47;9.77;;;27.20;36.50;;;;;;5059681;28;20193;-72
2024/01/17 05:15:47;;;;;;;57.47;11.17;;;27.20;36.50;;;;;;5045651;28;20285;-72
2024/01/17 05:18:15;;;;;;;48.83;9.67;;;27.20;36.60;;;;;;5046265;28;20281;-73
2024/01/17 05:20:42;;;;;;;49.03;9.90;;;27.20;36.50;;;;;;5045772;28;20211;-74
2024/01/17 05:23:09;;;;;;;57.57;10.47;;;27.20;36.50;;;;;;5045372;28;20226;-72
2024/01/17 05:25:36;;;;;;;53.07;10.57;;;27.20;36.50;;;;;;5059187;28;20214;-72
2024/01/17 05:28:04;;;;;;;61.03;11.30;;;27.20;36.50;;;;;;5065582;28;20278;-73
2024/01/17 05:30:31;;;;;;;47.47;10.77;;;27.20;36.40;;;;;;5065918;28;20199;-73
2024/01/17 05:32:58;;;;;;;55.43;11.87;;;27.20;36.40;;;;;;5066014;28;20284;-73
2024/01/17 05:35:28;;;;;;;44.67;10.07;;;27.20;36.40;;;;;;5064774;28;20645;-72
2024/01/17 05:37:55;;;;;;;43.63;9.57;;;27.20;36.40;;;;;;5064827;28;20219;-72
2024/01/17 05:40:22;;;;;;;49.10;11.33;;;27.20;36.40;;;;;;5065841;28;20214;-72
2024/01/17 05:42:49;;;;;;;50.63;10.53;;;27.20;36.40;;;;;;5049448;28;20235;-76
2024/01/17 05:45:16;;;;;;;56.57;10.53;;;27.20;36.40;;;;;;5045963;28;20192;-73
2024/01/17 05:47:43;;;;;;;49.87;10.13;;;27.20;36.40;;;;;;5049435;28;20283;-73
2024/01/17 05:50:11;;;;;;;59.77;10.57;;;27.20;36.40;;;;;;5057246;28;20191;-71
2024/01/17 05:52:40;;;;;;;46.63;11.00;;;27.20;36.50;;;;;;5046476;28;20204;-74
2024/01/17 05:55:09;;;;;;;52.37;10.90;;;27.20;36.40;;;;;;5045703;28;20231;-71
2024/01/17 05:57:36;;;;;;;56.07;10.50;;;27.20;36.40;;;;;;5045974;28;20242;-71
2024/01/17 06:00:03;;;;;;;50.10;9.63;;;27.20;36.40;;;;;;5045594;28;20630;-72
2024/01/17 06:02:31;;;;;;;49.53;9.53;;;27.20;36.40;;;;;;5060390;28;20196;-72
2024/01/17 06:04:58;;;;;;;55.83;12.03;;;27.20;36.40;;;;;;5065321;28;20199;-71
2024/01/17 06:07:25;;;;;;;50.70;9.43;;;27.20;36.30;;;;;;5065347;28;20659;-71
2024/01/17 06:09:53;;;;;;;50.03;9.90;;;27.20;36.30;;;;;;5065669;28;20196;-71
2024/01/17 06:12:20;;;;;;;55.03;10.53;;;27.20;36.40;;;;;;5064796;28;20294;-71
2024/01/17 06:14:49;;;;;;;51.90;10.13;;;27.20;36.40;;;;;;5065496;28;20233;-71
2024/01/17 06:17:16;;;;;;;52.37;10.40;;;27.20;36.30;;;;;;5065279;28;20318;-73
2024/01/17 06:19:43;;;;;;;50.97;10.23;;;27.20;36.30;;;;;;5065651;28;20636;-72
2024/01/17 06:22:10;;;;;;;48.23;9.97;;;27.20;36.30;;;;;;5064640;28;20289;-72
2024/01/17 06:24:37;;;;;;;41.03;9.03;;;27.20;36.30;;;;;;5068525;28;20215;-71
2024/01/17 06:27:06;;;;;;;52.13;10.07;;;27.20;36.20;;;;;;5069174;28;20698;-73
2024/01/17 06:29:34;;;;;;;79.67;12.33;;;27.30;36.30;;;;;;5065897;28;20225;-73
2024/01/17 06:32:01;;;;;;;46.90;9.80;;;27.30;36.30;;;;;;5067366;28;20282;-73
2024/01/17 06:34:28;;;;;;;58.30;10.83;;;27.20;36.20;;;;;;5058724;28;20198;-73
2024/01/17 06:36:55;;;;;;;58.77;10.63;;;27.30;36.20;;;;;;5069068;28;20303;-73
2024/01/17 06:39:22;;;;;;;60.80;11.03;;;27.30;36.20;;;;;;5069065;28;20286;-73
2024/01/17 06:41:49;;;;;;;47.27;10.40;;;27.30;36.20;;;;;;5053088;28;20200;-74
2024/01/17 06:44:17;;;;;;;52.57;9.83;;;27.20;36.10;;;;;;5053860;28;20203;-75
2024/01/17 06:46:44;;;;;;;61.90;10.90;;;27.30;36.10;;;;;;5068883;28;20314;-72
2024/01/17 06:49:11;;;;;;;72.20;11.50;;;27.30;36.20;;;;;;5068764;28;20208;-73
2024/01/17 06:51:38;;;;;;;55.97;9.77;;;27.30;36.20;;;;;;5068748;28;20197;-73
2024/01/17 06:54:05;;;;;;;48.87;10.07;;;27.30;36.20;;;;;;5052359;28;20218;-73
2024/01/17 06:56:34;;;;;;;56.07;9.63;;;27.30;36.10;;;;;;5048429;28;20703;-72
2024/01/17 06:59:01;;;;;;;49.73;9.87;;;27.30;36.10;;;;;;5048812;28;20242;-72
2024/01/17 07:01:30;;;;;;;76.17;11.83;;;27.30;36.10;;;;;;5052097;28;20314;-74
2024/01/17 07:03:57;;;;;;;64.10;10.33;;;27.30;36.10;;;;;;5051480;28;20291;-75
2024/01/17 07:06:24;;;;;;;60.47;11.43;;;27.30;36.10;;;;;;5055445;28;20706;-72
2024/01/17 07:08:51;;;;;;;51.57;9.57;;;27.20;36.00;;;;;;5058267;28;20302;-72
2024/01/17 07:11:18;;;;;;;53.00;10.27;;;27.30;36.10;;;;;;5067523;28;20206;-72
2024/01/17 07:13:45;;;;;;;52.95;10.57;;;27.30;36.10;;;;;;5067155;28;20694;-72
2024/01/17 07:16:15;;;;;;;58.10;10.23;;;27.30;36.10;;;;;;5068741;28;20223;-73
2024/01/17 07:18:43;;;;;;;58.40;12.57;;;27.30;36.10;;;;;;5068265;28;20245;-72
2024/01/17 07:21:11;;;;;;;47.00;10.67;;;27.30;36.10;;;;;;5067740;28;20206;-74
2024/01/17 07:23:39;;;;;;;74.73;14.73;;;27.30;36.10;;;;;;5066276;28;20987;-72
2024/01/17 07:26:06;;;;;;;62.63;11.87;;;27.30;36.10;;;;;;5068042;28;20207;-73
2024/01/17 07:28:33;;;;;;;85.00;19.97;;;27.30;36.10;;;;;;5055050;28;20211;-73
2024/01/17 07:31:00;;;;;;;165.17;31.90;;;27.30;36.40;;;;;;5051849;28;20924;-75
2024/01/17 07:33:27;;;;;;;120.97;26.87;;;27.30;36.60;;;;;;5060420;28;20195;-71
2024/01/17 07:35:56;;;;;;;104.93;23.63;;;27.30;36.80;;;;;;5067362;28;20867;-73
2024/01/17 07:38:23;;;;;;;98.50;29.93;;;27.30;36.80;;;;;;5066414;28;20195;-80
2024/01/17 07:40:50;;;;;;;100.83;25.07;;;27.30;36.80;;;;;;5060626;28;20200;-79
2024/01/17 07:43:18;;;;;;;87.37;23.67;;;27.30;36.80;;;;;;5052051;28;20287;-78
2024/01/17 07:45:45;;;;;;;97.27;22.97;;;27.40;36.90;;;;;;5067810;28;20727;-79
2024/01/17 07:48:12;;;;;;;103.97;22.27;;;27.40;36.80;;;;;;5066323;28;20219;-71
2024/01/17 07:50:40;;;;;;;88.67;23.37;;;27.40;36.70;;;;;;5067556;28;20286;-71
2024/01/17 07:53:11;;;;;;;80.53;20.57;;;27.40;36.60;;;;;;5068306;28;20200;-71
2024/01/17 07:55:39;;;;;;;87.80;20.67;;;27.50;36.60;;;;;;5067699;28;20253;-70
2024/01/17 07:58:06;;;;;;;80.20;19.13;;;27.40;36.50;;;;;;5062488;28;20877;-73
2024/01/17 08:00:33;;;;;;;87.10;18.98;;;27.50;36.50;;;;;;5047319;28;20674;-76
2024/01/17 08:03:00;;;;;;;71.72;17.00;;;27.50;36.50;;;;;;5046857;28;20211;-76
2024/01/17 08:05:27;;;;;;;70.13;17.20;;;27.50;36.50;;;;;;5047500;28;20211;-71
2024/01/17 08:07:54;;;;;;;74.00;19.20;;;27.50;36.40;;;;;;5060680;28;20290;-73
2024/01/17 08:10:22;;;;;;;105.17;18.97;;;27.50;36.30;;;;;;5063995;28;20283;-77
2024/01/17 08:12:49;;;;;;;65.90;17.43;;;27.50;36.30;;;;;;5067262;28;20210;-73
2024/01/17 08:15:16;;;;;;;64.40;16.80;;;27.50;36.30;;;;;;5067188;28;20239;-73
2024/01/17 08:17:44;;;;;;;79.23;19.10;;;27.50;36.30;;;;;;5066807;28;20286;-72
2024/01/17 08:20:12;;;;;;;68.10;18.17;;;27.50;36.30;;;;;;5067174;28;20652;-73
2024/01/17 08:22:40;;;;;;;76.57;17.60;;;27.50;36.30;;;;;;5061666;28;20231;-72
2024/01/17 08:25:07;;;;;;;61.33;16.03;;;27.50;36.20;;;;;;5065910;28;20757;-72
2024/01/17 08:27:36;;;;;;;71.47;17.10;;;27.50;36.20;;;;;;5067338;28;20283;-73
2024/01/17 08:30:05;;;;;;;65.30;15.87;;;27.60;36.20;;;;;;5066948;28;20204;-72
2024/01/17 08:32:32;;;;;;;65.87;17.50;;;27.50;36.10;;;;;;5066459;28;20197;-71
2024/01/17 08:34:59;;;;;;;64.30;16.00;;;27.50;36.10;;;;;;5060767;28;20191;-72
2024/01/17 08:37:26;;;;;;;62.00;15.67;;;27.50;36.70;;;;;;5066736;28;20213;-72
2024/01/17 08:39:53;;;;;;;71.13;17.27;;;27.50;36.10;;;;;;5067239;28;20278;-73
2024/01/17 08:42:20;;;;;;;66.70;16.80;;;27.50;36.00;;;;;;5067216;28;20195;-74
2024/01/17 08:44:48;;;;;;;53.60;16.10;;;27.50;36.60;;;;;;5067166;28;20202;-72
2024/01/17 08:47:16;;;;;;;63.03;15.90;;;27.50;36.00;;;;;;5059237;28;20192;-72
2024/01/17 08:49:43;;;;;;;64.87;16.00;;;27.50;36.00;;;;;;5046972;28;20204;-72
2024/01/17 08:52:10;;;;;;;67.30;16.03;;;27.50;36.00;;;;;;5046825;28;20261;-73
2024/01/17 08:54:37;;;;;;;62.83;16.33;;;27.50;36.00;;;;;;5046953;28;20208;-72
2024/01/17 08:57:04;;;;;;;60.78;16.50;;;27.50;36.00;;;;;;5046531;28;20350;-72
2024/01/17 08:59:34;;;;;;;59.58;14.93;;;27.50;35.90;;;;;;5046133;28;20204;-72
2024/01/17 09:02:02;;;;;;;64.57;15.60;;;27.50;36.00;;;;;;5046709;28;20273;-74
2024/01/17 09:04:29;;;;;;;61.17;15.43;;;27.50;35.80;;;;;;5046366;28;20641;-72
2024/01/17 09:06:56;;;;;;;72.53;17.53;;;27.50;35.90;;;;;;5062739;28;20195;-75
2024/01/17 09:09:25;;;;;;;96.70;17.83;;;27.50;35.80;;;;;;5065500;28;20196;-74
2024/01/17 09:11:53;;;;;;;66.37;16.07;;;27.50;35.80;;;;;;5066631;28;20241;-73
2024/01/17 09:14:21;;;;;;;66.73;16.17;;;27.50;35.80;;;;;;5066018;28;20203;-71
2024/01/17 09:16:49;;;;;;;76.30;16.70;;;27.50;36.10;;;;;;5065407;28;20308;-75
2024/01/17 09:19:18;;;;;;;53.03;15.00;;;27.50;36.40;;;;;;5065140;28;20203;-72
2024/01/17 09:21:45;;;;;;;57.22;16.13;;;27.50;35.80;;;;;;5066438;28;20249;-73
2024/01/17 09:24:12;;;;;;;62.42;14.75;;;27.40;35.70;;;;;;5065857;28;20265;-73
2024/01/17 09:26:39;;;;;;;52.03;14.97;;;27.50;35.80;;;;;;5066282;28;20299;-75
2024/01/17 09:29:06;;;;;;;65.00;15.23;;;27.40;35.70;;;;;;5065605;28;20206;-76
2024/01/17 09:31:33;;;;;;;56.80;16.23;;;27.40;35.70;;;;;;5066265;28;20278;-72
2024/01/17 09:34:00;;;;;;;58.23;14.63;;;27.40;35.70;;;;;;5066046;28;20307;-77
2024/01/17 09:36:29;;;;;;;70.18;15.00;;;27.40;35.70;;;;;;5065998;28;20233;-77
2024/01/17 09:38:57;;;;;;;62.53;14.57;;;27.40;35.70;;;;;;5065863;28;20199;-77
2024/01/17 09:41:24;;;;;;;54.37;15.20;;;27.40;35.70;;;;;;5066000;28;20195;-75
2024/01/17 09:43:51;;;;;;;54.93;14.93;;;27.40;35.70;;;;;;5062707;28;20200;-77
2024/01/17 09:46:18;;;;;;;52.10;15.10;;;27.40;35.70;;;;;;5065783;28;20299;-76
2024/01/17 09:48:46;;;;;;;56.40;13.70;;;27.40;35.70;;;;;;5066052;28;20213;-75
2024/01/17 09:51:16;;;;;;;61.87;15.73;;;27.40;35.70;;;;;;5066012;28;20310;-76
2024/01/17 09:53:47;;;;;;;57.42;15.07;;;27.40;35.70;;;;;;5065771;28;20702;-72
2024/01/17 09:56:16;;;;;;;65.40;14.70;;;27.40;35.70;;;;;;5065539;28;20227;-74
2024/01/17 09:58:46;;;;;;;55.57;14.93;;;27.40;35.70;;;;;;5069831;28;20195;-76
2024/01/17 10:01:14;;;;;;;64.93;15.40;;;27.30;35.60;;;;;;5067102;28;20203;-76
2024/01/17 10:03:43;;;;;;;62.90;14.90;;;27.40;35.70;;;;;;5051864;28;20208;-76
2024/01/17 10:06:11;;;;;;;60.20;14.03;;;27.30;35.60;;;;;;5069928;28;20206;-72
2024/01/17 10:08:38;;;;;;;50.73;14.40;;;27.30;35.60;;;;;;5069428;28;20731;-76
2024/01/17 10:11:07;;;;;;;65.97;15.37;;;27.30;35.60;;;;;;5069779;28;20211;-73
2024/01/17 10:13:34;;;;;;;59.13;13.77;;;27.30;35.60;;;;;;5069322;28;20235;-72
2024/01/17 10:16:01;;;;;;;53.17;14.20;;;27.30;35.70;;;;;;5069217;28;20268;-76
2024/01/17 10:18:29;;;;;;;60.17;14.50;;;27.30;35.60;;;;;;5069670;28;20188;-71
2024/01/17 10:20:57;;;;;;;63.80;15.30;;;27.30;35.70;;;;;;5069223;28;20624;-73
2024/01/17 10:23:26;;;;;;;67.17;16.03;;;27.30;35.60;;;;;;5069200;28;20298;-71
2024/01/17 10:25:53;;;;;;;58.73;14.03;;;27.30;35.60;;;;;;5069130;28;20265;-75
2024/01/17 10:28:21;;;;;;;57.30;14.47;;;27.30;35.60;;;;;;5069190;28;20209;-73
2024/01/17 10:30:48;;;;;;;50.93;14.17;;;27.30;35.50;;;;;;5068789;28;20662;-74
2024/01/17 10:33:16;;;;;;;76.67;16.10;;;27.30;35.40;;;;;;5051288;28;20192;-72
2024/01/17 10:35:43;;;;;;;56.77;14.87;;;27.30;35.40;;;;;;5068858;28;20231;-76
2024/01/17 10:38:10;;;;;;;54.20;14.43;;;27.30;35.40;;;;;;5067609;28;20677;-75
2024/01/17 10:40:42;;;;;;;66.70;16.10;;;27.30;35.40;;;;;;5069059;28;20250;-76
2024/01/17 10:43:10;;;;;;;56.00;14.53;;;27.30;35.40;;;;;;5068832;28;20199;-76
2024/01/17 10:45:40;;;;;;;58.63;14.70;;;27.30;35.40;;;;;;5069043;28;20199;-73
2024/01/17 10:48:07;;;;;;;58.10;15.00;;;27.30;35.30;;;;;;5069144;28;20203;-76
2024/01/17 10:50:34;;;;;;;45.90;14.53;;;27.30;35.30;;;;;;5068891;28;20310;-76
2024/01/17 10:53:05;;;;;;;45.70;13.73;;;27.30;35.30;;;;;;5068743;28;20295;-75
2024/01/17 10:55:35;;;;;;;73.50;15.43;;;27.10;35.20;;;;;;5068782;28;20204;-76
2024/01/17 10:58:09;;;;;;;46.37;13.73;;;27.30;35.30;;;;;;5068628;28;20334;-77
2024/01/17 11:00:41;;;;;;;60.17;14.50;;;27.30;35.20;;;;;;5069241;28;20282;-73
2024/01/17 11:03:11;;;;;;;57.43;14.40;;;27.30;35.20;;;;;;5067411;28;20294;-72
2024/01/17 11:05:46;;;;;;;63.67;16.90;;;27.30;35.20;;;;;;5068561;28;20199;-72
2024/01/17 11:08:15;;;;;;;61.60;14.73;;;27.30;35.20;;;;;;5068217;28;20191;-77
2024/01/17 11:10:44;;;;;;;51.20;13.60;;;27.30;35.90;;;;;;5068223;28;20219;-74
2024/01/17 11:13:14;;;;;;;60.03;14.70;;;27.30;35.20;;;;;;5068557;28;20203;-77
2024/01/17 11:15:44;;;;;;;61.83;14.60;;;27.30;35.20;;;;;;5068411;28;20642;-71
2024/01/17 11:18:12;;;;;;;58.00;13.87;;;27.30;35.20;;;;;;5068336;28;20231;-73
2024/01/17 11:20:40;;;;;;;43.57;14.13;;;27.30;35.80;;;;;;5068046;28;20283;-72
2024/01/17 11:23:09;;;;;;;57.37;14.43;;;27.30;35.20;;;;;;5068325;28;20634;-74
2024/01/17 11:25:42;;;;;;;64.33;14.07;;;27.30;35.20;;;;;;5067976;28;20203;-74
2024/01/17 11:28:19;;;;;;;52.17;13.57;;;27.30;35.20;;;;;;5068411;28;20296;-77
2024/01/17 11:31:05;;;;;;;58.13;14.73;;;27.30;35.10;;;;;;5067263;28;20214;-76
2024/01/17 11:33:33;;;;;;;54.67;13.97;;;27.30;35.00;;;;;;5067882;28;20207;-72
2024/01/17 11:36:00;;;;;;;53.70;14.00;;;27.20;35.10;;;;;;5067962;28;20233;-75
2024/01/17 11:38:32;;;;;;;48.03;14.17;;;27.30;35.20;;;;;;5068113;28;20214;-76
2024/01/17 11:41:05;;;;;;;47.43;14.13;;;27.30;35.10;;;;;;5067851;28;20306;-77
2024/01/17 11:43:35;;;;;;;53.10;14.23;;;27.20;35.10;;;;;;5051792;28;20208;-77
2024/01/17 11:46:06;;;;;;;62.20;21.73;;;27.30;35.10;;;;;;5047544;28;20561;-76
2024/01/17 11:48:34;;;;;;;58.33;14.93;;;27.30;34.60;;;;;;5052071;28;20202;-75
2024/01/17 11:51:05;;;;;;;51.87;15.40;;;27.30;34.50;;;;;;5047621;28;20204;-75
2024/01/17 11:53:35;;;;;;;77.90;16.03;;;27.30;34.10;;;;;;5047528;28;20196;-74
2024/01/17 11:56:03;;;;;;;106.17;21.10;;;27.20;34.00;;;;;;5055758;28;20224;-74
2024/01/17 11:58:41;;;;;;;81.07;16.20;;;27.20;34.60;;;;;;5058929;28;20282;-76
2024/01/17 12:01:11;;;;;;;58.20;15.77;;;27.20;34.70;;;;;;5067472;28;20231;-78
2024/01/17 12:03:38;;;;;;;56.40;14.93;;;27.20;34.40;;;;;;5067445;28;20796;-80
2024/01/17 12:06:05;;;;;;;61.10;15.80;;;27.20;34.60;;;;;;5067036;28;20667;-75
2024/01/17 12:08:34;;;;;;;66.83;15.47;;;27.20;34.70;;;;;;5065478;28;20282;-80
2024/01/17 12:11:01;;;;;;;60.33;15.03;;;27.20;34.80;;;;;;5047289;28;20710;-79
2024/01/17 12:13:28;;;;;;;61.73;14.70;;;27.10;34.80;;;;;;5053223;28;20226;-72
2024/01/17 12:15:55;;;;;;;66.97;15.77;;;27.10;35.00;;;;;;5047648;28;20203;-75
2024/01/17 12:18:25;;;;;;;61.70;15.50;;;27.10;35.00;;;;;;5049209;28;20227;-74
2024/01/17 12:20:54;;;;;;;62.73;14.90;;;27.10;35.00;;;;;;5058488;28;20295;-75
2024/01/17 12:23:24;;;;;;;52.47;15.93;;;27.10;35.00;;;;;;5056797;28;20662;-75
2024/01/17 12:25:52;;;;;;;46.77;15.83;;;27.10;35.00;;;;;;5058870;28;20652;-77
2024/01/17 12:28:20;;;;;;;57.63;16.27;;;27.10;35.00;;;;;;5047574;28;20196;-72
2024/01/17 12:30:58;;;;;;;44.93;15.33;;;27.10;35.00;;;;;;5063012;28;20214;-75